createdAt,value
2022-11-22T00:00:58.922Z,-1.30
2022-11-22T00:04:03.127Z,-1.20
2022-11-22T00:07:06.105Z,-1.00
2022-11-22T00:10:11.767Z,-1.10
2022-11-22T00:13:14.718Z,-1.20
2022-11-22T00:16:17.649Z,-1.10
2022-11-22T00:19:22.127Z,-1.30
2022-11-22T00:22:25.058Z,-1.00
2022-11-22T00:25:28.361Z,-1.20
2022-11-22T00:28:31.396Z,-1.00
2022-11-22T00:31:34.605Z,-1.20
2022-11-22T00:34:38.884Z,-1.10
2022-11-22T00:37:42.036Z,-1.40
2022-11-22T00:40:45.039Z,-1.40
2022-11-22T00:43:47.918Z,-1.30
2022-11-22T00:46:50.993Z,-1.40
2022-11-22T00:49:55.243Z,-1.30
2022-11-22T00:52:58.289Z,-1.30
2022-11-22T00:56:01.251Z,-1.50
2022-11-22T00:59:04.385Z,-1.30
2022-11-22T01:02:07.291Z,-1.50
2022-11-22T01:05:11.790Z,-1.30
2022-11-22T01:08:14.713Z,-1.50
2022-11-22T01:11:19.327Z,-1.20
2022-11-22T01:14:22.563Z,-1.20
2022-11-22T01:17:25.524Z,-1.10
2022-11-22T01:20:30.777Z,-1.50
2022-11-22T01:23:34.601Z,-1.30
2022-11-22T01:26:37.648Z,-1.30
2022-11-22T01:29:40.672Z,-1.50
2022-11-22T01:32:43.624Z,-1.40
2022-11-22T01:35:48.315Z,-1.40
2022-11-22T01:38:51.258Z,-1.20
2022-11-22T01:41:54.136Z,-1.50
2022-11-22T01:44:57.056Z,-1.40
2022-11-22T01:48:03.312Z,-1.30
2022-11-22T01:51:21.839Z,-1.30
2022-11-22T01:54:28.598Z,-1.40
2022-11-22T01:57:35.209Z,-1.70
2022-11-22T02:00:39.693Z,-1.60
2022-11-22T02:03:46.680Z,-1.40
2022-11-22T02:06:57.238Z,-1.40
2022-11-22T02:10:00.264Z,-1.60
2022-11-22T02:13:04.389Z,-1.50
2022-11-22T02:16:07.855Z,-1.30
2022-11-22T02:19:15.419Z,-1.20
2022-11-22T02:22:32.563Z,-1.40
2022-11-22T02:25:49.456Z,-1.10
2022-11-22T02:28:54.003Z,-1.10
2022-11-22T02:31:57.034Z,-1.20
2022-11-22T02:34:59.949Z,-1.20
2022-11-22T02:38:06.003Z,-1.20
2022-11-22T02:41:12.685Z,-1.40
2022-11-22T02:44:16.791Z,-1.40
2022-11-22T02:47:19.772Z,-1.30
2022-11-22T02:50:22.661Z,-1.10
2022-11-22T02:53:25.816Z,-1.20
2022-11-22T02:56:30.448Z,-1.50
2022-11-22T02:59:33.464Z,-1.20
2022-11-22T03:02:36.346Z,-1.30
2022-11-22T03:05:39.276Z,-1.10
2022-11-22T03:08:42.106Z,-1.10
2022-11-22T03:11:47.373Z,-1.00
2022-11-22T03:14:50.283Z,-1.10
2022-11-22T03:17:58.600Z,-1.10
2022-11-22T03:21:03.548Z,-1.10
2022-11-22T03:24:07.837Z,-1.30
2022-11-22T03:27:12.150Z,-1.10
2022-11-22T03:30:15.977Z,-1.20
2022-11-22T03:33:18.851Z,-1.10
2022-11-22T03:36:21.966Z,-1.10
2022-11-22T03:39:25.202Z,-1.20
2022-11-22T03:42:29.466Z,-1.50
2022-11-22T03:45:32.412Z,-1.20
2022-11-22T03:48:35.360Z,-1.20
2022-11-22T03:51:38.257Z,-1.20
2022-11-22T03:54:41.189Z,-1.20
2022-11-22T03:57:45.470Z,-1.20
2022-11-22T04:00:48.362Z,-1.30
2022-11-22T04:03:52.296Z,-1.20
2022-11-22T04:06:55.254Z,-1.30
2022-11-22T04:09:58.148Z,-1.20
2022-11-22T04:13:03.086Z,-1.10
2022-11-22T04:16:05.363Z,-1.10
2022-11-22T04:19:08.498Z,-1.20
2022-11-22T04:22:10.390Z,-1.20
2022-11-22T04:25:16.181Z,-1.30
2022-11-22T04:28:35.247Z,-1.20
2022-11-22T04:32:03.651Z,-1.00
2022-11-22T04:35:07.270Z,-1.20
2022-11-22T04:38:10.655Z,-1.10
2022-11-22T04:41:13.649Z,-0.90
2022-11-22T04:44:35.368Z,-1.10
2022-11-22T04:48:01.391Z,-1.20
2022-11-22T04:51:22.606Z,-1.00
2022-11-22T04:54:25.692Z,-1.10
2022-11-22T04:57:28.639Z,-1.00
2022-11-22T05:00:33.819Z,-1.10
2022-11-22T05:03:36.793Z,-1.10
2022-11-22T05:06:39.702Z,-0.80
2022-11-22T05:09:42.611Z,-0.90
2022-11-22T05:12:45.543Z,-0.90
2022-11-22T05:15:51.309Z,-0.70
2022-11-22T05:18:59.987Z,-0.70
2022-11-22T05:22:02.934Z,-0.90
2022-11-22T05:25:05.411Z,-0.90
2022-11-22T05:28:08.322Z,-0.90
2022-11-22T05:31:15.008Z,-0.80
2022-11-22T05:34:18.001Z,-1.00
2022-11-22T05:37:21.698Z,-0.80
2022-11-22T05:40:24.918Z,-0.80
2022-11-22T05:43:28.991Z,-0.80
2022-11-22T05:46:33.265Z,-0.70
2022-11-22T05:49:36.152Z,-0.60
2022-11-22T05:52:39.459Z,-0.70
2022-11-22T05:55:42.441Z,-0.70
2022-11-22T05:58:45.855Z,-0.80
2022-11-22T06:01:50.235Z,-0.60
2022-11-22T06:04:53.254Z,-0.70
2022-11-22T06:08:00.050Z,-0.70
2022-11-22T06:11:06.855Z,-0.70
2022-11-22T06:14:10.551Z,-0.70
2022-11-22T06:17:14.860Z,-0.70
2022-11-22T06:20:17.900Z,-0.80
2022-11-22T06:23:20.800Z,-0.70
2022-11-22T06:26:25.028Z,-0.70
2022-11-22T06:29:30.198Z,-0.40
2022-11-22T06:32:35.684Z,-0.60
2022-11-22T06:35:38.584Z,-0.60
2022-11-22T06:38:42.224Z,-0.80
2022-11-22T06:41:45.159Z,-0.70
2022-11-22T06:44:48.061Z,-0.30
2022-11-22T06:47:52.309Z,-0.50
2022-11-22T06:50:59.731Z,-0.50
2022-11-22T06:54:02.863Z,-0.30
2022-11-22T06:57:05.715Z,-0.30
2022-11-22T07:00:10.243Z,-0.50
2022-11-22T07:03:14.478Z,-0.20
2022-11-22T07:06:19.667Z,-0.20
2022-11-22T07:09:22.724Z,-0.30
2022-11-22T07:12:25.684Z,-0.50
2022-11-22T07:15:28.871Z,-0.30
2022-11-22T07:18:33.811Z,-0.30
2022-11-22T07:21:38.195Z,-0.20
2022-11-22T07:24:41.150Z,-0.10
2022-11-22T07:27:44.102Z,-0.40
2022-11-22T07:30:46.967Z,-0.20
2022-11-22T07:33:51.274Z,-0.40
2022-11-22T07:36:59.060Z,-0.10
2022-11-22T07:40:03.491Z,0.00
2022-11-22T07:43:06.468Z,-0.10
2022-11-22T07:46:14.869Z,-0.10
2022-11-22T07:49:19.123Z,-0.10
2022-11-22T07:52:22.728Z,-0.10
2022-11-22T07:55:26.874Z,0.00
2022-11-22T07:58:29.783Z,0.10
2022-11-22T08:01:32.797Z,0.00
2022-11-22T08:04:37.203Z,0.20
2022-11-22T08:07:40.214Z,0.10
2022-11-22T08:10:44.660Z,0.20
2022-11-22T08:13:47.560Z,0.10
2022-11-22T08:16:51.224Z,0.20
2022-11-22T08:19:55.668Z,0.30
2022-11-22T08:22:58.603Z,0.10
2022-11-22T08:26:01.654Z,0.20
2022-11-22T08:29:09.877Z,0.30
2022-11-22T08:32:15.526Z,0.20
2022-11-22T08:35:19.876Z,0.20
2022-11-22T08:38:22.855Z,0.30
2022-11-22T08:41:26.311Z,0.30
2022-11-22T08:44:29.233Z,0.40
2022-11-22T08:47:32.174Z,0.30
2022-11-22T08:50:36.595Z,0.60
2022-11-22T08:53:40.824Z,0.30
2022-11-22T08:56:43.727Z,0.60
2022-11-22T08:59:46.730Z,0.30
2022-11-22T09:02:49.757Z,0.60
2022-11-22T09:12:39.805Z,0.50
2022-11-22T09:15:42.787Z,0.80
2022-11-22T09:18:46.001Z,0.80
2022-11-22T09:21:50.280Z,1.10
2022-11-22T09:24:53.380Z,1.10
2022-11-22T09:27:56.342Z,1.00
2022-11-22T09:31:03.320Z,1.10
2022-11-22T09:34:06.236Z,0.70
2022-11-22T09:37:10.712Z,0.90
2022-11-22T09:40:14.148Z,0.80
2022-11-22T09:43:25.583Z,1.10
2022-11-22T09:46:36.663Z,1.00
2022-11-22T09:49:44.874Z,1.20
2022-11-22T09:52:54.817Z,1.30
2022-11-22T09:56:00.697Z,1.00
2022-11-22T09:59:07.481Z,1.20
2022-11-22T10:02:19.015Z,1.10
2022-11-22T10:05:26.948Z,1.10
2022-11-22T10:08:38.414Z,1.10
2022-11-22T10:11:46.735Z,1.30
2022-11-22T10:14:55.300Z,1.50
2022-11-22T10:18:01.769Z,1.40
2022-11-22T10:21:06.256Z,1.20
2022-11-22T10:24:16.685Z,1.20
2022-11-22T10:27:19.660Z,1.20
2022-11-22T10:30:23.244Z,1.40
2022-11-22T10:33:33.865Z,1.40
2022-11-22T10:36:45.045Z,1.20
2022-11-22T10:40:09.173Z,1.60
2022-11-22T10:43:28.697Z,1.30
2022-11-22T10:46:42.474Z,1.60
2022-11-22T10:49:56.950Z,1.40
2022-11-22T10:53:06.393Z,1.50
2022-11-22T10:56:17.757Z,1.40
2022-11-22T10:59:39.454Z,1.70
2022-11-22T11:02:59.640Z,1.60
2022-11-22T11:06:24.398Z,1.50
2022-11-22T11:10:09.563Z,1.90
2022-11-22T11:13:05.321Z,1.60
2022-11-22T11:16:12.014Z,1.70
2022-11-22T11:19:19.596Z,1.80
2022-11-22T11:22:50.333Z,1.80
2022-11-22T11:25:52.278Z,1.80
2022-11-22T11:29:43.193Z,2.00
2022-11-22T11:32:54.739Z,1.90
2022-11-22T11:36:02.528Z,2.00
2022-11-22T11:39:05.542Z,2.00
2022-11-22T11:42:26.881Z,2.30
2022-11-22T11:45:30.301Z,2.10
2022-11-22T11:48:41.056Z,2.20
2022-11-22T11:51:45.547Z,2.20
2022-11-22T11:54:50.863Z,2.20
2022-11-22T11:57:54.756Z,2.20
2022-11-22T12:00:58.553Z,2.30
2022-11-22T12:04:05.039Z,2.30
2022-11-22T12:07:19.410Z,2.30
2022-11-22T12:10:32.333Z,2.20
2022-11-22T12:14:04.688Z,2.20
2022-11-22T12:17:13.141Z,2.30
2022-11-22T12:20:22.809Z,2.30
2022-11-22T12:23:32.438Z,2.30
2022-11-22T12:26:35.410Z,2.30
2022-11-22T12:29:41.057Z,2.40
2022-11-22T12:32:48.676Z,2.40
2022-11-22T12:35:55.486Z,2.30
2022-11-22T12:39:02.807Z,2.40
2022-11-22T12:42:11.714Z,2.30
2022-11-22T12:45:24.210Z,2.40
2022-11-22T12:48:31.133Z,2.40
2022-11-22T12:51:42.184Z,2.30
2022-11-22T12:54:53.719Z,2.20
2022-11-22T12:58:08.608Z,2.30
2022-11-22T13:01:18.739Z,2.20
2022-11-22T13:04:28.815Z,2.30
2022-11-22T13:07:50.361Z,2.30
2022-11-22T13:10:57.689Z,2.30
2022-11-22T13:14:06.871Z,2.30
2022-11-22T13:17:10.990Z,2.40
2022-11-22T13:20:19.143Z,2.50
2022-11-22T13:23:45.803Z,2.30
2022-11-22T13:26:59.118Z,2.40
2022-11-22T13:30:03.597Z,2.60
2022-11-22T13:33:07.815Z,2.40
2022-11-22T13:36:38.149Z,2.40
2022-11-22T13:39:46.971Z,2.40
2022-11-22T13:43:15.651Z,2.60
2022-11-22T13:46:55.784Z,2.40
2022-11-22T13:49:58.749Z,2.40
2022-11-22T13:53:22.090Z,2.40
2022-11-22T13:56:59.590Z,2.40
2022-11-22T14:00:48.250Z,2.40
2022-11-22T14:03:52.705Z,2.40
2022-11-22T14:07:02.905Z,2.40
2022-11-22T14:10:22.503Z,2.30
2022-11-22T14:13:36.828Z,2.30
2022-11-22T14:16:54.392Z,2.50
2022-11-22T14:20:07.442Z,2.40
2022-11-22T14:23:22.951Z,2.40
2022-11-22T14:26:34.424Z,2.40
2022-11-22T14:29:53.942Z,2.40
2022-11-22T14:33:04.236Z,2.40
2022-11-22T14:36:18.268Z,2.30
2022-11-22T14:39:53.284Z,2.30
2022-11-22T14:42:59.569Z,2.30
2022-11-22T14:46:30.516Z,2.30
2022-11-22T14:49:43.011Z,2.30
2022-11-22T14:52:49.020Z,2.30
2022-11-22T14:55:57.188Z,2.30
2022-11-22T14:59:29.863Z,2.50
2022-11-22T15:03:07.895Z,2.40
2022-11-22T15:09:23.613Z,2.30
2022-11-22T15:10:27.149Z,2.40
2022-11-22T15:13:53.391Z,2.30
2022-11-22T15:58:47.563Z,2.30
2022-11-22T16:01:53.248Z,2.50
2022-11-22T16:06:10.354Z,2.40
2022-11-22T16:08:25.255Z,2.40
2022-11-22T16:11:34.673Z,2.50
2022-11-22T16:14:45.899Z,2.30
2022-11-22T16:17:59.204Z,2.40
2022-11-22T16:21:04.182Z,2.30
2022-11-22T16:24:17.243Z,2.30
2022-11-22T16:27:20.142Z,2.30
2022-11-22T16:30:23.865Z,2.30
2022-11-22T16:33:28.525Z,2.30
2022-11-22T16:36:31.600Z,2.30
2022-11-22T16:39:34.682Z,2.50
2022-11-22T16:42:39.349Z,2.30
2022-11-22T16:45:42.289Z,2.40
2022-11-22T16:48:46.728Z,2.30
2022-11-22T16:51:51.051Z,2.30
2022-11-22T16:54:54.046Z,2.40
2022-11-22T16:57:57.307Z,2.60
2022-11-22T17:01:00.376Z,2.50
2022-11-22T17:04:05.128Z,2.30
2022-11-22T17:07:10.558Z,2.30
2022-11-22T17:10:13.556Z,2.10
2022-11-22T17:13:21.589Z,2.20
2022-11-22T17:16:24.647Z,2.40
2022-11-22T17:19:52.109Z,2.20
2022-11-22T17:22:52.620Z,2.30
2022-11-22T17:25:55.603Z,2.40
2022-11-22T17:28:58.492Z,2.10
2022-11-22T17:32:01.411Z,2.50
2022-11-22T17:35:06.795Z,2.30
2022-11-22T17:38:11.418Z,2.30
2022-11-22T17:41:14.340Z,2.20
2022-11-22T17:44:18.814Z,2.20
2022-11-22T17:47:21.674Z,2.20
2022-11-22T17:50:25.997Z,2.10
2022-11-22T17:53:28.919Z,2.30
2022-11-22T17:56:33.604Z,2.10
2022-11-22T17:59:36.639Z,2.20
2022-11-22T18:02:39.683Z,2.10
2022-11-22T18:05:44.004Z,2.20
2022-11-22T18:08:47.511Z,2.20
2022-11-22T18:11:50.576Z,2.30
2022-11-22T18:14:53.488Z,2.30
2022-11-22T18:17:56.465Z,2.20
2022-11-22T18:21:00.715Z,2.20
2022-11-22T18:24:03.780Z,2.20
2022-11-22T18:27:06.707Z,2.20
2022-11-22T18:30:11.200Z,2.40
2022-11-22T18:33:14.864Z,2.20
2022-11-22T18:36:53.404Z,2.40
2022-11-22T18:39:46.546Z,2.20
2022-11-22T18:42:51.424Z,2.20
2022-11-22T18:46:01.017Z,2.20
2022-11-22T18:49:03.946Z,2.30
2022-11-22T18:52:10.727Z,2.30
2022-11-22T18:55:17.724Z,2.40
2022-11-22T18:58:20.675Z,2.30
2022-11-22T19:01:26.334Z,2.30
2022-11-22T19:04:29.896Z,2.30
2022-11-22T19:07:34.498Z,2.50
2022-11-22T19:10:37.445Z,2.20
2022-11-22T19:13:41.838Z,2.20
2022-11-22T19:16:44.831Z,2.20
2022-11-22T19:19:47.836Z,2.10
2022-11-22T19:22:52.468Z,2.30
2022-11-22T19:25:55.402Z,2.30
2022-11-22T19:29:02.245Z,2.40
2022-11-22T19:32:05.252Z,2.20
2022-11-22T19:35:09.167Z,2.20
2022-11-22T19:38:13.420Z,2.20
2022-11-22T19:41:17.868Z,2.30
2022-11-22T19:44:22.865Z,2.60
2022-11-22T19:47:26.679Z,2.20
2022-11-22T19:50:29.589Z,2.30
2022-11-22T19:53:33.914Z,2.30
2022-11-22T19:56:38.900Z,2.30
2022-11-22T19:59:41.857Z,2.30
2022-11-22T20:02:44.751Z,2.50
2022-11-22T20:05:47.677Z,2.50
2022-11-22T20:08:52.078Z,2.30
2022-11-22T20:11:54.969Z,2.60
2022-11-22T20:14:58.056Z,2.40
2022-11-22T20:18:01.426Z,2.40
2022-11-22T20:21:06.039Z,2.40
2022-11-22T20:24:10.849Z,2.50
2022-11-22T20:27:13.993Z,2.60
2022-11-22T20:30:17.637Z,2.40
2022-11-22T20:33:20.502Z,2.30
2022-11-22T20:36:25.167Z,2.30
2022-11-22T20:39:29.459Z,2.50
2022-11-22T20:42:34.869Z,2.30
2022-11-22T20:45:38.346Z,2.30
2022-11-22T20:48:42.873Z,2.40
2022-11-22T20:51:45.823Z,2.40
2022-11-22T20:54:50.091Z,2.30
2022-11-22T20:57:53.007Z,2.30
2022-11-22T21:00:56.793Z,2.40
2022-11-22T21:03:59.698Z,2.30
2022-11-22T21:07:02.637Z,2.30
2022-11-22T21:10:07.585Z,2.30
2022-11-22T21:13:10.758Z,2.30
2022-11-22T21:16:23.199Z,2.30
2022-11-22T21:19:26.999Z,2.50
2022-11-22T21:22:31.930Z,2.40
2022-11-22T21:25:36.444Z,2.40
2022-11-22T21:28:39.650Z,2.40
2022-11-22T21:31:42.526Z,2.40
2022-11-22T21:34:45.478Z,2.60
2022-11-22T21:37:48.398Z,2.40
2022-11-22T21:40:58.363Z,2.30
2022-11-22T21:44:08.835Z,2.50
2022-11-22T21:47:11.749Z,2.30
2022-11-22T21:50:15.386Z,2.20
2022-11-22T21:53:18.321Z,2.10
2022-11-22T21:56:22.636Z,2.10
2022-11-22T21:59:25.527Z,2.00
2022-11-22T22:02:29.513Z,2.00
2022-11-22T22:05:32.918Z,2.00
2022-11-22T22:08:36.275Z,2.00
2022-11-22T22:11:41.794Z,2.00
2022-11-22T22:14:44.725Z,1.90
2022-11-22T22:17:47.787Z,2.10
2022-11-22T22:20:59.736Z,1.70
2022-11-22T22:24:03.668Z,2.00
2022-11-22T22:27:07.933Z,1.90
2022-11-22T22:30:11.985Z,1.90
2022-11-22T22:33:14.880Z,2.10
2022-11-22T22:36:17.862Z,1.90
2022-11-22T22:39:20.750Z,1.80
2022-11-22T22:42:25.012Z,1.80
2022-11-22T22:45:28.008Z,1.80
2022-11-22T22:48:31.514Z,1.80
2022-11-22T22:51:34.477Z,1.80
2022-11-22T22:54:37.464Z,1.90
2022-11-22T22:57:41.711Z,1.80
2022-11-22T23:00:44.640Z,1.70
2022-11-22T23:03:49.122Z,1.80
2022-11-22T23:06:52.131Z,1.80
2022-11-22T23:09:55.069Z,1.70
2022-11-22T23:12:59.434Z,1.70
2022-11-22T23:16:02.543Z,1.80
2022-11-22T23:19:05.453Z,1.70
2022-11-22T23:22:08.382Z,1.80
2022-11-22T23:25:11.666Z,1.70
2022-11-22T23:28:16.004Z,1.50
2022-11-22T23:31:18.877Z,1.80
2022-11-22T23:34:22.012Z,1.60
2022-11-22T23:37:24.977Z,1.50
2022-11-22T23:40:27.874Z,1.50
2022-11-22T23:43:32.359Z,1.50
2022-11-22T23:46:35.295Z,1.60
2022-11-22T23:49:38.206Z,1.60
2022-11-22T23:52:41.194Z,1.70
2022-11-22T23:55:44.104Z,1.50
2022-11-22T23:58:48.360Z,1.50
